createdAt,value
2018-07-11T00:01:55.995Z,11.53
2018-07-11T00:04:24.405Z,13.77
2018-07-11T00:06:52.778Z,16.47
2018-07-11T00:09:21.219Z,13.13
2018-07-11T00:11:49.580Z,17.10
2018-07-11T00:14:18.016Z,16.30
2018-07-11T00:16:51.857Z,11.50
2018-07-11T00:19:20.681Z,14.70
2018-07-11T00:21:49.099Z,15.90
2018-07-11T00:24:17.944Z,11.33
2018-07-11T00:26:46.822Z,16.77
2018-07-11T00:29:15.249Z,11.97
2018-07-11T00:31:43.659Z,15.77
2018-07-11T00:34:12.561Z,13.10
2018-07-11T00:36:41.402Z,16.60
2018-07-11T00:39:10.273Z,11.17
2018-07-11T00:41:38.770Z,14.97
2018-07-11T00:44:09.735Z,12.40
2018-07-11T00:46:38.250Z,13.57
2018-07-11T00:49:07.125Z,12.83
2018-07-11T00:51:35.551Z,13.23
2018-07-11T00:54:04.037Z,15.00
2018-07-11T00:56:33.038Z,11.10
2018-07-11T00:59:03.351Z,17.40
2018-07-11T01:01:31.757Z,12.70
2018-07-11T01:04:00.945Z,14.57
2018-07-11T01:06:29.368Z,13.63
2018-07-11T01:08:58.774Z,17.00
2018-07-11T01:11:32.251Z,11.63
2018-07-11T01:14:00.655Z,18.33
2018-07-11T01:16:29.594Z,17.67
2018-07-11T01:19:01.793Z,15.77
2018-07-11T01:21:31.029Z,12.30
2018-07-11T01:23:59.460Z,18.00
2018-07-11T01:26:32.305Z,16.50
2018-07-11T01:29:00.803Z,15.47
2018-07-11T01:31:29.206Z,16.33
2018-07-11T01:33:59.088Z,12.47
2018-07-11T01:36:27.875Z,16.13
2018-07-11T01:38:56.370Z,13.67
2018-07-11T01:41:25.238Z,14.30
2018-07-11T01:43:54.097Z,17.80
2018-07-11T01:46:22.481Z,17.50
2018-07-11T01:48:51.491Z,16.03
2018-07-11T01:51:19.978Z,13.33
2018-07-11T01:53:48.378Z,15.40
2018-07-11T01:56:16.786Z,14.53
2018-07-11T01:58:46.175Z,13.80
2018-07-11T02:01:15.985Z,12.57
2018-07-11T02:03:44.411Z,11.50
2018-07-11T02:06:13.493Z,17.23
2018-07-11T02:08:42.404Z,12.63
2018-07-11T02:11:10.820Z,17.00
2018-07-11T02:13:39.272Z,18.87
2018-07-11T02:16:08.082Z,17.97
2018-07-11T02:18:36.829Z,20.30
2018-07-11T02:21:06.173Z,19.73
2018-07-11T02:23:37.800Z,19.70
2018-07-11T02:26:06.755Z,21.30
2018-07-11T02:28:35.238Z,18.00
2018-07-11T02:31:03.855Z,20.97
2018-07-11T02:33:32.285Z,17.43
2018-07-11T02:36:01.217Z,17.63
2018-07-11T02:38:30.064Z,19.20
2018-07-11T02:40:58.470Z,18.97
2018-07-11T02:43:27.362Z,19.20
2018-07-11T02:45:56.250Z,19.43
2018-07-11T02:48:24.653Z,16.07
2018-07-11T02:50:53.114Z,21.23
2018-07-11T02:53:22.963Z,16.73
2018-07-11T02:55:52.390Z,19.77
2018-07-11T02:58:21.309Z,19.73
2018-07-11T03:00:50.568Z,16.57
2018-07-11T03:03:19.067Z,15.53
2018-07-11T03:05:48.026Z,22.33
2018-07-11T03:08:17.729Z,18.50
2018-07-11T03:10:46.970Z,20.27
2018-07-11T03:13:18.765Z,23.40
2018-07-11T03:15:47.210Z,19.80
2018-07-11T03:18:15.699Z,17.20
2018-07-11T03:20:44.574Z,20.53
2018-07-11T03:23:13.006Z,17.33
2018-07-11T03:25:41.867Z,17.00
2018-07-11T03:28:10.275Z,19.93
2018-07-11T03:30:38.673Z,18.43
2018-07-11T03:33:07.618Z,20.37
2018-07-11T03:35:36.036Z,20.00
2018-07-11T03:38:04.509Z,16.57
2018-07-11T03:40:33.298Z,15.30
2018-07-11T03:43:02.125Z,21.33
2018-07-11T03:45:30.967Z,18.73
2018-07-11T03:47:59.356Z,15.43
2018-07-11T03:50:28.571Z,20.73
2018-07-11T03:52:56.999Z,18.03
2018-07-11T03:55:25.395Z,19.87
2018-07-11T03:57:53.756Z,19.00
2018-07-11T04:00:25.580Z,20.57
2018-07-11T04:02:55.319Z,22.73
2018-07-11T04:05:23.899Z,18.93
2018-07-11T04:07:52.365Z,19.07
2018-07-11T04:10:21.119Z,21.70
2018-07-11T04:12:51.074Z,16.67
2018-07-11T04:15:19.456Z,21.03
2018-07-11T04:17:48.230Z,18.47
2018-07-11T04:20:17.022Z,17.70
2018-07-11T04:22:45.876Z,18.60
2018-07-11T04:25:14.286Z,15.73
2018-07-11T04:27:44.706Z,19.70
2018-07-11T04:30:13.811Z,19.93
2018-07-11T04:32:42.669Z,14.90
2018-07-11T04:35:11.171Z,14.67
2018-07-11T04:37:40.066Z,18.17
2018-07-11T04:40:08.980Z,22.47
2018-07-11T04:42:37.477Z,21.53
2018-07-11T04:45:06.194Z,19.80
2018-07-11T04:47:35.133Z,20.10
2018-07-11T04:50:03.616Z,31.03
2018-07-11T04:52:32.097Z,22.17
2018-07-11T04:55:01.073Z,19.63
2018-07-11T04:57:29.989Z,19.40
2018-07-11T04:59:58.523Z,17.90
2018-07-11T05:02:26.898Z,17.23
2018-07-11T05:04:55.670Z,16.47
2018-07-11T05:07:24.058Z,18.63
2018-07-11T05:09:52.459Z,19.00
2018-07-11T05:12:21.328Z,15.87
2018-07-11T05:14:50.438Z,18.23
2018-07-11T05:17:19.014Z,17.57
2018-07-11T05:19:47.494Z,17.23
2018-07-11T05:22:16.350Z,17.63
2018-07-11T05:24:44.750Z,15.17
2018-07-11T05:27:13.529Z,19.17
2018-07-11T05:29:42.393Z,15.20
2018-07-11T05:32:10.793Z,19.60
2018-07-11T05:34:39.181Z,16.00
2018-07-11T05:37:07.998Z,16.83
2018-07-11T05:39:36.789Z,15.13
2018-07-11T05:42:05.523Z,17.00
2018-07-11T05:44:33.942Z,18.37
2018-07-11T05:47:05.588Z,16.07
2018-07-11T05:49:35.016Z,21.33
2018-07-11T05:52:04.547Z,15.23
2018-07-11T05:54:34.544Z,19.07
2018-07-11T05:57:03.720Z,20.53
2018-07-11T05:59:32.113Z,16.53
2018-07-11T06:02:00.852Z,16.83
2018-07-11T06:04:29.614Z,17.83
2018-07-11T06:06:58.046Z,21.10
2018-07-11T06:09:26.814Z,18.40
2018-07-11T06:11:55.618Z,17.70
2018-07-11T06:14:24.485Z,18.03
2018-07-11T06:16:52.873Z,17.67
2018-07-11T06:19:21.278Z,16.77
2018-07-11T06:21:50.967Z,19.40
2018-07-11T06:24:20.060Z,22.07
2018-07-11T06:26:48.605Z,18.70
2018-07-11T06:29:17.105Z,18.23
2018-07-11T06:31:45.485Z,18.87
2018-07-11T06:34:13.849Z,22.17
2018-07-11T06:36:42.214Z,17.73
2018-07-11T06:39:10.651Z,22.47
2018-07-11T06:41:39.434Z,17.43
2018-07-11T06:44:09.241Z,19.93
2018-07-11T06:46:37.663Z,18.47
2018-07-11T06:49:06.480Z,19.80
2018-07-11T06:51:34.894Z,24.20
2018-07-11T06:54:03.802Z,26.53
2018-07-11T06:56:32.183Z,26.40
2018-07-11T06:59:00.930Z,27.70
2018-07-11T07:01:29.411Z,28.70
2018-07-11T07:03:57.831Z,26.07
2018-07-11T07:06:26.695Z,25.63
2018-07-11T07:08:55.482Z,26.53
2018-07-11T07:11:24.286Z,29.80
2018-07-11T07:13:53.132Z,32.70
2018-07-11T07:16:21.935Z,32.73
2018-07-11T07:18:50.725Z,28.50
2018-07-11T07:21:19.083Z,29.35
2018-07-11T07:23:47.480Z,30.00
2018-07-11T07:26:16.288Z,25.23
2018-07-11T07:53:21.512Z,37.47
2018-07-11T08:26:30.366Z,30.13
2018-07-11T08:40:59.584Z,32.10
2018-07-11T08:47:15.216Z,32.97
2018-07-11T08:49:49.680Z,30.23
2018-07-11T08:54:26.294Z,35.70
2018-07-11T08:58:02.069Z,25.43
2018-07-11T09:00:35.957Z,28.97
2018-07-11T09:03:22.594Z,30.60
2018-07-11T09:10:11.017Z,33.97
2018-07-11T09:12:55.006Z,36.57
2018-07-11T09:15:33.831Z,30.90
2018-07-11T09:18:17.159Z,39.03
2018-07-11T09:21:00.648Z,33.90
2018-07-11T09:23:39.269Z,30.63
2018-07-11T09:26:07.726Z,38.77
2018-07-11T09:28:36.103Z,40.57
2018-07-11T09:31:04.939Z,34.10
2018-07-11T09:33:33.391Z,37.33
2018-07-11T09:36:01.774Z,35.13
2018-07-11T09:38:30.217Z,37.03
2018-07-11T09:40:59.087Z,33.17
2018-07-11T09:43:27.543Z,29.90
2018-07-11T09:45:55.958Z,30.20
2018-07-11T09:48:24.866Z,27.73
2018-07-11T09:50:53.276Z,25.93
2018-07-11T09:53:21.692Z,33.73
2018-07-11T09:55:50.580Z,27.03
2018-07-11T09:58:19.669Z,27.37
2018-07-11T10:00:53.864Z,18.27
2018-07-11T10:03:22.314Z,15.87
2018-07-11T10:05:51.259Z,16.60
2018-07-11T10:08:20.187Z,13.80
2018-07-11T10:25:35.649Z,22.23
2018-07-11T10:28:15.810Z,17.80
2018-07-11T10:30:44.237Z,21.20
2018-07-11T10:33:14.287Z,16.80
2018-07-11T10:35:43.018Z,24.13
2018-07-11T10:38:12.802Z,18.40
2018-07-11T10:40:41.261Z,21.37
2018-07-11T10:43:15.188Z,20.80
2018-07-11T10:45:44.094Z,22.03
2018-07-11T10:48:12.910Z,23.37
2018-07-11T10:50:41.282Z,21.53
2018-07-11T10:53:10.103Z,24.90
2018-07-11T10:55:39.811Z,25.10
2018-07-11T10:58:08.615Z,19.83
2018-07-11T11:00:37.246Z,24.13
2018-07-11T11:03:05.521Z,24.43
2018-07-11T11:05:34.296Z,22.53
2018-07-11T11:08:02.734Z,25.47
2018-07-11T11:10:31.561Z,22.67
2018-07-11T11:13:00.206Z,24.93
2018-07-11T11:15:28.629Z,18.57
2018-07-11T11:40:06.224Z,27.43
2018-07-11T11:42:35.289Z,29.57
2018-07-11T11:45:03.872Z,23.67
2018-07-11T11:47:32.269Z,27.67
2018-07-11T11:50:00.657Z,22.70
2018-07-11T11:52:29.116Z,23.50
2018-07-11T11:54:57.957Z,25.37
2018-07-11T11:57:26.347Z,24.47
2018-07-11T11:59:55.125Z,23.30
2018-07-11T12:02:23.920Z,27.23
2018-07-11T12:04:52.328Z,26.13
2018-07-11T12:07:20.766Z,21.47
2018-07-11T12:09:49.628Z,19.77
2018-07-11T12:51:43.075Z,13.70
2018-07-11T12:54:11.928Z,11.10
2018-07-11T12:56:40.331Z,11.40
2018-07-11T12:59:08.726Z,10.80
2018-07-11T13:06:34.145Z,10.13
2018-07-11T13:09:02.623Z,8.37
2018-07-11T13:11:31.026Z,8.73
2018-07-11T13:13:59.433Z,7.20
2018-07-11T13:16:27.798Z,8.07
2018-07-11T13:18:56.560Z,7.40
2018-07-11T13:21:25.361Z,6.10
2018-07-11T13:23:54.124Z,3.73
2018-07-11T13:26:22.530Z,4.53
2018-07-11T13:28:51.383Z,8.97
2018-07-11T13:31:19.769Z,5.63
2018-07-11T13:33:48.615Z,6.23
2018-07-11T13:36:17.055Z,6.90
2018-07-11T13:38:45.427Z,6.00
2018-07-11T13:41:14.240Z,7.00
2018-07-11T13:43:42.628Z,6.33
2018-07-11T13:46:11.407Z,7.10
2018-07-11T13:48:39.845Z,6.80
2018-07-11T13:51:08.720Z,5.80
2018-07-11T13:53:37.213Z,5.00
2018-07-11T13:56:05.643Z,7.90
2018-07-11T13:58:34.576Z,5.47
2018-07-11T14:01:02.998Z,6.03
2018-07-11T14:03:31.555Z,5.30
2018-07-11T14:06:00.026Z,4.67
2018-07-11T14:08:28.501Z,4.20
2018-07-11T14:10:57.371Z,4.30
2018-07-11T14:13:26.239Z,6.03
2018-07-11T14:15:55.599Z,5.43
2018-07-11T14:18:24.054Z,9.30
2018-07-11T14:20:52.961Z,8.70
2018-07-11T14:23:39.716Z,8.80
2018-07-11T14:26:08.761Z,8.20
2018-07-11T14:28:41.754Z,9.53
2018-07-11T14:31:11.575Z,7.97
2018-07-11T14:33:40.036Z,8.33
2018-07-11T14:36:08.469Z,7.90
2018-07-11T14:38:37.251Z,8.97
2018-07-11T14:41:05.679Z,9.63
2018-07-11T14:43:34.150Z,8.87
2018-07-11T14:46:03.098Z,8.53
2018-07-11T14:48:31.533Z,8.40
2018-07-11T14:51:01.782Z,8.17
2018-07-11T14:53:34.051Z,8.77
2018-07-11T14:56:02.970Z,8.63
2018-07-11T14:58:31.802Z,8.87
2018-07-11T15:01:00.196Z,7.30
2018-07-11T15:03:28.605Z,7.77
2018-07-11T15:05:58.361Z,8.13
2018-07-11T15:08:27.035Z,9.77
2018-07-11T15:10:55.415Z,8.87
2018-07-11T15:13:24.477Z,10.40
2018-07-11T15:15:52.884Z,8.73
2018-07-11T15:18:22.000Z,8.50
2018-07-11T15:20:50.534Z,9.57
2018-07-11T15:23:19.045Z,10.37
2018-07-11T15:25:47.423Z,10.50
2018-07-11T15:28:15.914Z,9.63
2018-07-11T15:30:44.334Z,10.80
2018-07-11T15:33:12.739Z,9.93
2018-07-11T15:35:41.213Z,11.00
2018-07-11T15:38:10.067Z,9.27
2018-07-11T15:40:38.812Z,10.20
2018-07-11T15:43:07.216Z,9.57
2018-07-11T15:45:35.653Z,8.87
2018-07-11T15:48:04.118Z,9.27
2018-07-11T15:50:33.248Z,8.50
2018-07-11T15:53:02.559Z,8.77
2018-07-11T15:55:32.583Z,7.77
2018-07-11T15:58:03.272Z,8.23
2018-07-11T16:00:36.637Z,8.40
2018-07-11T16:03:05.102Z,16.40
2018-07-11T16:05:34.830Z,8.67
2018-07-11T16:08:05.382Z,10.93
2018-07-11T16:10:48.415Z,8.27
2018-07-11T16:13:17.528Z,10.43
2018-07-11T16:15:46.749Z,12.10
2018-07-11T16:18:15.682Z,11.67
2018-07-11T16:20:44.106Z,7.70
2018-07-11T16:23:13.286Z,8.37
2018-07-11T16:25:43.086Z,10.17
2018-07-11T16:28:11.593Z,10.07
2018-07-11T16:30:40.484Z,9.67
2018-07-11T16:33:09.305Z,10.40
2018-07-11T16:35:38.121Z,8.13
2018-07-11T16:38:07.375Z,13.03
2018-07-11T16:40:36.242Z,9.30
2018-07-11T16:43:05.377Z,10.63
2018-07-11T16:45:34.102Z,11.00
2018-07-11T16:48:02.530Z,11.10
2018-07-11T16:50:31.525Z,12.13
2018-07-11T16:53:00.373Z,12.50
2018-07-11T16:55:29.974Z,10.37
2018-07-11T16:57:58.537Z,10.27
2018-07-11T17:00:27.960Z,10.47
2018-07-11T17:03:00.304Z,9.53
2018-07-11T17:05:31.532Z,9.57
2018-07-11T17:08:00.448Z,10.23
2018-07-11T17:10:30.313Z,10.40
2018-07-11T17:13:03.455Z,13.67
2018-07-11T17:15:33.433Z,12.60
2018-07-11T17:18:02.744Z,10.53
2018-07-11T17:20:31.231Z,11.17
2018-07-11T17:23:02.208Z,11.00
2018-07-11T17:25:38.884Z,13.00
2018-07-11T17:28:07.318Z,12.23
2018-07-11T17:30:40.139Z,11.40
2018-07-11T17:33:09.765Z,13.40
2018-07-11T17:35:45.434Z,14.03
2018-07-11T17:38:13.926Z,14.03
2018-07-11T17:40:43.165Z,13.47
2018-07-11T17:43:12.459Z,14.43
2018-07-11T17:45:42.291Z,14.80
2018-07-11T17:48:45.507Z,15.23
2018-07-11T17:52:17.858Z,15.20
2018-07-11T18:50:07.413Z,24.80
2018-07-11T18:52:41.573Z,22.87
2018-07-11T18:55:20.389Z,27.67
2018-07-11T18:57:56.005Z,25.40
2018-07-11T19:00:32.947Z,23.03
2018-07-11T19:03:39.481Z,22.43
2018-07-11T19:06:29.822Z,22.77
2018-07-11T19:09:18.529Z,22.80
2018-07-11T19:11:48.830Z,21.37
2018-07-11T19:14:25.102Z,21.07
2018-07-11T19:16:56.357Z,23.40
2018-07-11T19:19:26.990Z,22.60
2018-07-11T19:21:58.848Z,30.67
2018-07-11T19:24:29.870Z,33.33
2018-07-11T19:27:13.801Z,30.53
2018-07-11T19:29:47.686Z,26.90
2018-07-11T19:32:31.717Z,23.20
2018-07-11T19:35:13.089Z,24.10
2018-07-11T19:38:48.104Z,22.57
2018-07-11T19:41:18.528Z,23.43
2018-07-11T19:44:08.047Z,23.77
2018-07-11T19:48:53.881Z,23.90
2018-07-11T19:52:28.623Z,30.30
2018-07-11T19:57:06.022Z,22.43
2018-07-11T19:59:34.929Z,24.83
2018-07-11T20:02:03.847Z,25.97
2018-07-11T20:04:32.258Z,26.27
2018-07-11T20:07:00.712Z,26.83
2018-07-11T20:09:29.717Z,25.53
2018-07-11T20:11:58.615Z,30.87
2018-07-11T20:14:27.578Z,26.33
2018-07-11T20:16:56.455Z,23.53
2018-07-11T20:19:24.861Z,24.20
2018-07-11T20:21:53.271Z,21.77
2018-07-11T20:24:22.103Z,19.43
2018-07-11T20:26:50.868Z,23.90
2018-07-11T20:29:19.284Z,20.90
2018-07-11T20:31:48.157Z,19.37
2018-07-11T20:34:16.574Z,18.60
2018-07-11T20:36:45.387Z,19.87
2018-07-11T20:39:14.244Z,17.30
2018-07-11T20:41:43.080Z,17.10
2018-07-11T20:44:11.974Z,21.47
2018-07-11T20:46:40.510Z,15.33
2018-07-11T20:49:14.668Z,17.07
2018-07-11T20:51:43.214Z,17.13
2018-07-11T20:54:11.746Z,17.57
2018-07-11T20:56:40.247Z,20.57
2018-07-11T20:59:14.273Z,20.47
2018-07-11T21:03:02.844Z,22.03
2018-07-11T21:05:36.834Z,18.67
2018-07-11T21:08:12.600Z,16.70
2018-07-11T21:10:47.119Z,20.17
2018-07-11T21:13:20.004Z,16.57
2018-07-11T21:15:52.895Z,16.10
2018-07-11T21:18:32.103Z,18.27
2018-07-11T21:21:00.602Z,17.27
2018-07-11T21:23:29.526Z,14.67
2018-07-11T21:25:58.051Z,24.63
2018-07-11T21:28:27.019Z,24.43
2018-07-11T21:30:55.529Z,21.87
2018-07-11T21:33:24.443Z,24.67
2018-07-11T21:35:52.983Z,22.80
2018-07-11T21:38:22.046Z,26.13
2018-07-11T21:40:50.702Z,24.10
2018-07-11T21:43:19.165Z,26.37
2018-07-11T21:45:47.619Z,26.97
2018-07-11T21:48:16.086Z,27.73
2018-07-11T21:50:44.922Z,25.77
2018-07-11T21:53:13.849Z,32.10
2018-07-11T21:55:42.359Z,32.77
2018-07-11T21:58:10.825Z,28.13
2018-07-11T22:00:40.318Z,37.57
2018-07-11T22:03:09.799Z,31.47
2018-07-11T22:05:38.356Z,28.90
2018-07-11T22:08:07.944Z,32.77
2018-07-11T22:10:38.386Z,31.63
2018-07-11T22:13:07.525Z,35.73
2018-07-11T22:15:36.324Z,35.73
2018-07-11T22:18:10.239Z,33.50
2018-07-11T22:20:37.853Z,33.13
2018-07-11T22:23:05.753Z,31.40
2018-07-11T22:25:33.574Z,31.50
2018-07-11T22:28:01.591Z,34.83
2018-07-11T22:30:29.451Z,25.97
2018-07-11T22:32:57.048Z,26.77
2018-07-11T22:35:24.914Z,29.83
2018-07-11T22:37:52.558Z,28.93
2018-07-11T22:40:20.422Z,30.63
2018-07-11T22:42:48.131Z,28.10
2018-07-11T22:45:16.217Z,38.80
2018-07-11T22:47:43.816Z,26.90
2018-07-11T22:50:11.666Z,33.17
2018-07-11T22:52:39.558Z,33.47
2018-07-11T22:55:07.358Z,30.13
2018-07-11T22:57:35.013Z,30.43
2018-07-11T23:00:02.851Z,29.93
2018-07-11T23:02:30.454Z,34.80
2018-07-11T23:04:58.079Z,38.40
2018-07-11T23:07:25.949Z,30.00
2018-07-11T23:09:53.821Z,32.23
2018-07-11T23:12:21.662Z,31.03
2018-07-11T23:14:49.269Z,31.27
2018-07-11T23:17:16.861Z,31.93
2018-07-11T23:19:45.127Z,34.60
2018-07-11T23:22:12.972Z,31.17
2018-07-11T23:24:40.550Z,32.17
2018-07-11T23:27:08.407Z,31.33
2018-07-11T23:29:35.989Z,27.83
2018-07-11T23:32:03.871Z,26.00
2018-07-11T23:34:31.694Z,33.77
2018-07-11T23:37:00.016Z,40.63
2018-07-11T23:39:27.891Z,37.70
2018-07-11T23:41:55.479Z,40.70
2018-07-11T23:44:23.056Z,43.57
2018-07-11T23:46:51.330Z,38.20
2018-07-11T23:49:18.926Z,33.10
2018-07-11T23:51:46.492Z,40.07
2018-07-11T23:54:14.111Z,38.93
2018-07-11T23:56:41.941Z,41.53
2018-07-11T23:59:09.772Z,45.30
